createdAt,value
2023-05-24T00:00:06.507Z,1.00
2023-05-24T00:02:33.713Z,1.17
2023-05-24T00:05:01.520Z,1.35
2023-05-24T00:07:31.967Z,1.30
2023-05-24T00:09:59.047Z,0.90
2023-05-24T00:12:26.175Z,1.38
2023-05-24T00:14:53.205Z,0.75
2023-05-24T00:17:20.354Z,0.90
2023-05-24T00:19:47.493Z,1.10
2023-05-24T00:22:14.608Z,0.90
2023-05-24T00:24:41.727Z,0.80
2023-05-24T00:27:08.853Z,0.80
2023-05-24T00:29:36.033Z,1.10
2023-05-24T00:32:03.425Z,0.82
2023-05-24T00:34:30.601Z,0.80
2023-05-24T00:36:58.230Z,1.88
2023-05-24T00:39:25.261Z,0.80
2023-05-24T00:41:52.312Z,0.60
2023-05-24T00:44:19.375Z,1.17
2023-05-24T00:46:46.562Z,0.50
2023-05-24T00:49:14.641Z,0.80
2023-05-24T00:51:41.787Z,0.60
2023-05-24T00:54:08.996Z,0.80
2023-05-24T00:56:36.115Z,0.68
2023-05-24T00:59:03.418Z,0.60
2023-05-24T01:01:31.579Z,0.93
2023-05-24T01:03:59.866Z,0.68
2023-05-24T01:06:29.129Z,0.60
2023-05-24T01:09:23.132Z,0.50
2023-05-24T01:12:08.619Z,0.63
2023-05-24T01:14:45.381Z,0.70
2023-05-24T01:17:20.532Z,0.90
2023-05-24T01:20:00.397Z,0.43
2023-05-24T01:22:38.072Z,0.68
2023-05-24T01:25:06.178Z,0.60
2023-05-24T01:27:36.610Z,0.68
2023-05-24T01:30:05.012Z,0.52
2023-05-24T01:32:33.041Z,0.63
2023-05-24T01:35:00.137Z,0.45
2023-05-24T01:37:27.408Z,0.60
2023-05-24T01:39:54.921Z,0.68
2023-05-24T01:42:29.023Z,0.50
2023-05-24T01:45:15.944Z,0.60
2023-05-24T01:48:03.754Z,0.60
2023-05-24T01:50:46.028Z,0.63
2023-05-24T01:53:17.604Z,1.30
2023-05-24T01:55:48.488Z,0.40
2023-05-24T01:58:18.120Z,0.70
2023-05-24T02:00:46.065Z,0.70
2023-05-24T02:03:15.843Z,1.58
2023-05-24T02:05:44.687Z,0.57
2023-05-24T02:08:13.217Z,0.80
2023-05-24T02:10:41.284Z,0.70
2023-05-24T02:13:09.387Z,1.13
2023-05-24T02:15:36.539Z,0.95
2023-05-24T02:18:04.453Z,1.35
2023-05-24T02:20:31.766Z,0.90
2023-05-24T02:22:59.034Z,0.85
2023-05-24T02:25:26.339Z,0.73
2023-05-24T02:27:53.466Z,1.27
2023-05-24T02:30:21.043Z,0.95
2023-05-24T02:32:48.127Z,1.52
2023-05-24T02:35:15.217Z,0.80
2023-05-24T02:37:42.476Z,0.88
2023-05-24T02:40:10.361Z,1.33
2023-05-24T02:42:37.419Z,1.13
2023-05-24T02:45:05.146Z,0.90
2023-05-24T02:47:32.204Z,0.82
2023-05-24T02:49:59.253Z,1.40
2023-05-24T02:52:27.099Z,1.10
2023-05-24T02:54:54.227Z,0.90
2023-05-24T02:57:21.302Z,1.30
2023-05-24T02:59:48.374Z,0.95
2023-05-24T03:02:15.787Z,0.90
2023-05-24T03:04:42.969Z,0.85
2023-05-24T03:07:11.056Z,0.88
2023-05-24T03:09:38.146Z,1.23
2023-05-24T03:12:06.128Z,1.23
2023-05-24T03:14:33.237Z,2.08
2023-05-24T03:17:00.271Z,1.27
2023-05-24T03:19:27.319Z,1.20
2023-05-24T03:21:54.455Z,1.50
2023-05-24T03:24:21.862Z,1.10
2023-05-24T03:26:49.121Z,1.17
2023-05-24T03:29:16.339Z,1.35
2023-05-24T03:31:43.526Z,1.33
2023-05-24T03:34:10.890Z,1.70
2023-05-24T03:36:37.963Z,1.00
2023-05-24T03:39:05.121Z,2.22
2023-05-24T03:41:32.211Z,1.30
2023-05-24T03:43:59.942Z,1.30
2023-05-24T03:46:27.165Z,1.27
2023-05-24T03:48:54.366Z,1.23
2023-05-24T03:51:23.899Z,1.23
2023-05-24T03:53:50.922Z,1.58
2023-05-24T03:56:18.072Z,1.08
2023-05-24T03:58:45.327Z,0.90
2023-05-24T04:01:21.974Z,1.30
2023-05-24T04:03:56.780Z,1.20
2023-05-24T04:06:29.359Z,1.65
2023-05-24T04:08:57.577Z,1.65
2023-05-24T04:11:28.684Z,1.25
2023-05-24T04:13:56.342Z,1.30
2023-05-24T04:16:26.578Z,2.35
2023-05-24T04:18:55.804Z,1.70
2023-05-24T04:21:23.492Z,1.52
2023-05-24T04:23:50.730Z,1.90
2023-05-24T04:26:18.074Z,2.08
2023-05-24T04:28:47.142Z,1.50
2023-05-24T04:31:14.254Z,1.52
2023-05-24T04:33:41.866Z,1.63
2023-05-24T04:36:11.937Z,1.63
2023-05-24T04:38:40.104Z,1.50
2023-05-24T04:41:07.531Z,1.83
2023-05-24T04:43:35.990Z,2.22
2023-05-24T04:46:03.221Z,1.83
2023-05-24T04:48:30.802Z,1.98
2023-05-24T04:50:58.738Z,2.10
2023-05-24T04:53:26.676Z,2.00
2023-05-24T04:55:53.882Z,2.05
2023-05-24T04:58:21.261Z,1.70
2023-05-24T05:00:48.695Z,1.75
2023-05-24T05:03:16.445Z,2.22
2023-05-24T05:05:43.795Z,2.13
2023-05-24T05:08:10.845Z,1.95
2023-05-24T05:10:38.138Z,2.30
2023-05-24T05:13:05.273Z,2.13
2023-05-24T05:15:32.968Z,1.90
2023-05-24T05:18:00.667Z,2.00
2023-05-24T05:20:27.914Z,1.63
2023-05-24T05:22:55.337Z,2.50
2023-05-24T05:25:22.614Z,2.17
2023-05-24T05:27:49.726Z,1.88
2023-05-24T05:30:16.914Z,1.90
2023-05-24T05:32:44.330Z,2.22
2023-05-24T05:35:11.615Z,2.25
2023-05-24T05:37:38.706Z,2.20
2023-05-24T05:40:06.419Z,2.38
2023-05-24T05:42:33.521Z,3.30
2023-05-24T05:45:01.025Z,2.60
2023-05-24T05:47:28.241Z,2.42
2023-05-24T05:49:55.308Z,2.80
2023-05-24T05:52:22.410Z,2.45
2023-05-24T05:54:49.568Z,2.17
2023-05-24T05:57:16.825Z,2.35
2023-05-24T05:59:44.014Z,2.00
2023-05-24T06:02:13.252Z,2.33
2023-05-24T06:04:40.648Z,1.85
2023-05-24T06:07:07.986Z,2.72
2023-05-24T06:09:35.084Z,2.25
2023-05-24T06:12:02.234Z,2.03
2023-05-24T06:14:29.451Z,3.05
2023-05-24T06:16:58.090Z,2.00
2023-05-24T06:19:27.551Z,1.98
2023-05-24T06:21:54.606Z,2.20
2023-05-24T06:24:21.762Z,2.10
2023-05-24T06:26:50.943Z,1.95
2023-05-24T06:29:21.375Z,2.25
2023-05-24T06:31:49.759Z,2.00
2023-05-24T06:34:18.137Z,2.13
2023-05-24T06:36:47.820Z,2.15
2023-05-24T06:39:16.470Z,1.63
2023-05-24T06:41:44.856Z,1.65
2023-05-24T06:44:12.081Z,2.33
2023-05-24T06:46:39.889Z,3.75
2023-05-24T06:49:07.510Z,1.90
2023-05-24T06:51:34.923Z,1.88
2023-05-24T06:54:06.996Z,2.63
2023-05-24T06:56:36.407Z,2.10
2023-05-24T06:59:03.636Z,2.78
2023-05-24T07:01:31.241Z,1.98
2023-05-24T07:03:58.396Z,3.20
2023-05-24T07:06:25.576Z,1.88
2023-05-24T07:08:52.778Z,2.45
2023-05-24T07:11:20.220Z,2.05
2023-05-24T07:13:47.476Z,2.03
2023-05-24T07:16:14.720Z,2.35
2023-05-24T07:18:42.223Z,1.77
2023-05-24T07:21:09.402Z,3.05
2023-05-24T07:23:37.578Z,1.88
2023-05-24T07:26:05.393Z,2.03
2023-05-24T07:28:32.933Z,1.85
2023-05-24T07:31:00.163Z,2.50
2023-05-24T07:33:27.488Z,2.05
2023-05-24T07:35:55.230Z,1.55
2023-05-24T07:38:22.444Z,2.33
2023-05-24T07:40:49.673Z,1.83
2023-05-24T07:43:16.869Z,1.48
2023-05-24T07:45:44.407Z,1.52
2023-05-24T07:48:11.973Z,2.80
2023-05-24T07:50:39.315Z,1.77
2023-05-24T07:53:06.707Z,1.60
2023-05-24T07:55:34.062Z,1.73
2023-05-24T07:58:01.954Z,2.28
2023-05-24T08:00:34.306Z,1.50
2023-05-24T08:03:01.844Z,1.60
2023-05-24T08:05:29.665Z,1.95
2023-05-24T08:07:57.483Z,1.85
2023-05-24T08:10:26.183Z,1.60
2023-05-24T08:12:55.693Z,1.85
2023-05-24T08:15:23.623Z,1.85
2023-05-24T08:17:51.541Z,1.85
2023-05-24T08:20:19.499Z,1.70
2023-05-24T08:22:48.970Z,1.60
2023-05-24T08:25:16.741Z,1.30
2023-05-24T08:27:44.362Z,1.60
2023-05-24T08:30:14.100Z,1.80
2023-05-24T08:32:41.641Z,1.48
2023-05-24T08:35:19.220Z,2.17
2023-05-24T08:37:48.731Z,1.70
2023-05-24T08:40:16.898Z,1.85
2023-05-24T08:42:46.839Z,1.92
2023-05-24T08:45:16.165Z,1.52
2023-05-24T08:47:44.427Z,1.50
2023-05-24T08:50:14.325Z,1.98
2023-05-24T08:52:43.144Z,1.80
2023-05-24T08:55:12.531Z,2.60
2023-05-24T08:57:41.897Z,1.90
2023-05-24T09:00:13.503Z,2.53
2023-05-24T09:02:43.020Z,1.90
2023-05-24T09:05:13.233Z,1.60
2023-05-24T09:07:42.540Z,1.90
2023-05-24T09:10:11.566Z,1.85
2023-05-24T09:12:40.499Z,2.40
2023-05-24T09:15:09.462Z,1.33
2023-05-24T09:17:38.646Z,1.83
2023-05-24T09:20:11.354Z,1.70
2023-05-24T09:22:42.132Z,1.50
2023-05-24T09:25:11.794Z,1.80
2023-05-24T09:27:39.543Z,1.65
2023-05-24T09:30:13.200Z,1.67
2023-05-24T09:32:41.688Z,1.95
2023-05-24T09:35:10.974Z,1.23
2023-05-24T09:37:41.129Z,1.70
2023-05-24T09:40:19.483Z,1.73
2023-05-24T09:42:47.168Z,1.50
2023-05-24T09:45:14.945Z,1.20
2023-05-24T09:47:44.038Z,1.60
2023-05-24T09:50:18.231Z,1.58
2023-05-24T09:52:46.419Z,1.48
2023-05-24T09:55:18.963Z,1.75
2023-05-24T09:57:53.005Z,1.48
2023-05-24T10:00:24.653Z,1.58
2023-05-24T10:03:03.606Z,1.63
2023-05-24T10:05:31.723Z,1.30
2023-05-24T10:08:00.255Z,1.58
2023-05-24T10:10:29.898Z,1.50
2023-05-24T10:12:58.172Z,1.63
2023-05-24T10:15:26.858Z,1.77
2023-05-24T10:17:57.138Z,1.90
2023-05-24T10:20:25.775Z,1.70
2023-05-24T10:23:00.579Z,1.55
2023-05-24T10:25:29.707Z,1.40
2023-05-24T10:28:01.458Z,1.90
2023-05-24T10:30:38.016Z,1.52
2023-05-24T10:33:09.151Z,1.45
2023-05-24T10:35:38.736Z,1.90
2023-05-24T10:38:08.427Z,2.00
2023-05-24T10:40:42.067Z,1.50
2023-05-24T10:43:10.374Z,1.75
2023-05-24T10:45:39.692Z,1.75
2023-05-24T10:48:14.782Z,1.60
2023-05-24T10:50:44.340Z,1.85
2023-05-24T10:53:13.896Z,1.45
2023-05-24T10:56:01.383Z,1.52
2023-05-24T10:58:31.137Z,1.23
2023-05-24T11:00:58.777Z,1.02
2023-05-24T11:03:26.443Z,1.90
2023-05-24T11:05:55.708Z,1.67
2023-05-24T11:08:34.226Z,1.55
2023-05-24T11:11:19.025Z,1.30
2023-05-24T11:13:56.596Z,1.50
2023-05-24T11:16:34.925Z,1.55
2023-05-24T11:19:16.977Z,1.65
2023-05-24T11:21:47.523Z,1.63
2023-05-24T11:24:15.455Z,1.52
2023-05-24T11:26:42.873Z,1.63
2023-05-24T11:29:10.875Z,2.00
2023-05-24T11:31:43.212Z,2.10
2023-05-24T11:34:11.542Z,1.55
2023-05-24T11:36:38.677Z,1.92
2023-05-24T11:39:09.720Z,1.70
2023-05-24T11:41:38.578Z,2.20
2023-05-24T11:44:07.722Z,1.80
2023-05-24T11:46:34.825Z,2.85
2023-05-24T11:49:01.859Z,1.40
2023-05-24T11:51:31.098Z,1.90
2023-05-24T11:54:35.512Z,1.80
2023-05-24T11:57:05.566Z,1.58
2023-05-24T11:59:35.197Z,1.70
2023-05-24T12:02:07.716Z,1.85
2023-05-24T12:04:49.444Z,1.83
2023-05-24T12:07:18.371Z,1.65
2023-05-24T12:09:46.159Z,1.90
2023-05-24T12:12:13.804Z,2.38
2023-05-24T12:15:06.693Z,1.98
2023-05-24T12:17:34.176Z,1.75
2023-05-24T12:20:04.752Z,1.67
2023-05-24T12:22:33.039Z,1.65
2023-05-24T12:25:00.892Z,1.83
2023-05-24T12:27:29.276Z,1.67
2023-05-24T12:30:26.031Z,1.85
2023-05-24T12:32:58.496Z,1.52
2023-05-24T12:35:28.395Z,2.08
2023-05-24T12:38:00.878Z,1.88
2023-05-24T12:40:38.141Z,1.73
2023-05-24T12:46:00.907Z,2.00
2023-05-24T12:48:29.064Z,1.80
2023-05-24T12:50:57.613Z,1.58
2023-05-24T12:53:26.396Z,1.55
2023-05-24T12:56:05.625Z,2.20
2023-05-24T12:58:47.730Z,1.70
2023-05-24T13:01:27.163Z,1.83
2023-05-24T13:06:39.618Z,2.05
2023-05-24T13:11:38.725Z,1.67
2023-05-24T13:14:31.766Z,1.63
2023-05-24T13:16:59.534Z,1.48
2023-05-24T13:19:27.451Z,1.77
2023-05-24T13:21:54.505Z,2.42
2023-05-24T13:24:34.987Z,2.08
2023-05-24T13:27:48.305Z,1.77
2023-05-24T13:30:34.210Z,1.88
2023-05-24T13:33:06.531Z,1.48
2023-05-24T13:36:04.129Z,1.52
2023-05-24T13:38:47.383Z,2.20
2023-05-24T13:41:28.614Z,1.38
2023-05-24T13:44:36.857Z,1.65
2023-05-24T13:47:23.741Z,2.33
2023-05-24T13:50:01.879Z,2.47
2023-05-24T13:52:29.139Z,2.15
2023-05-24T13:54:59.332Z,1.63
2023-05-24T13:57:33.649Z,1.70
2023-05-24T14:00:11.518Z,2.88
2023-05-24T14:02:39.591Z,2.00
2023-05-24T14:05:25.850Z,1.95
2023-05-24T14:07:55.684Z,2.03
2023-05-24T14:10:22.834Z,1.80
2023-05-24T14:13:03.496Z,2.00
2023-05-24T14:15:37.506Z,1.95
2023-05-24T14:18:08.877Z,2.08
2023-05-24T14:20:38.486Z,2.05
2023-05-24T14:23:07.336Z,1.80
2023-05-24T14:25:34.830Z,2.25
2023-05-24T14:28:02.220Z,2.40
2023-05-24T14:30:32.678Z,2.10
2023-05-24T14:33:01.763Z,2.08
2023-05-24T14:35:29.279Z,1.80
2023-05-24T14:37:56.535Z,2.78
2023-05-24T14:40:23.848Z,2.08
2023-05-24T14:42:51.109Z,1.90
2023-05-24T14:45:20.621Z,2.63
2023-05-24T14:47:47.888Z,2.47
2023-05-24T14:50:15.114Z,2.47
2023-05-24T14:52:42.268Z,1.67
2023-05-24T14:55:10.056Z,2.00
2023-05-24T14:57:37.313Z,1.67
2023-05-24T15:00:05.277Z,2.38
2023-05-24T15:02:34.681Z,1.85
2023-05-24T15:05:02.406Z,2.63
2023-05-24T15:07:29.984Z,2.42
2023-05-24T15:09:57.352Z,1.92
2023-05-24T15:12:24.965Z,2.28
2023-05-24T15:14:52.934Z,2.10
2023-05-24T15:17:21.816Z,2.08
2023-05-24T15:19:49.669Z,2.35
2023-05-24T15:22:17.069Z,2.17
2023-05-24T15:24:44.305Z,2.10
2023-05-24T15:27:11.817Z,1.85
2023-05-24T15:29:39.309Z,2.22
2023-05-24T15:32:07.663Z,1.48
2023-05-24T15:34:34.798Z,1.67
2023-05-24T15:37:02.102Z,1.67
2023-05-24T15:39:29.654Z,2.10
2023-05-24T15:41:59.494Z,2.05
2023-05-24T15:44:26.808Z,1.92
2023-05-24T15:46:54.064Z,1.35
2023-05-24T15:49:23.641Z,1.70
2023-05-24T15:54:20.857Z,2.00
2023-05-24T15:56:50.073Z,1.55
2023-05-24T15:59:21.527Z,2.20
2023-05-24T16:01:48.863Z,1.83
2023-05-24T16:04:16.194Z,1.60
2023-05-24T16:06:43.513Z,2.40
2023-05-24T16:09:10.823Z,1.63
2023-05-24T16:11:40.773Z,1.60
2023-05-24T16:14:09.004Z,1.65
2023-05-24T16:16:36.886Z,1.67
2023-05-24T16:19:04.215Z,2.13
2023-05-24T16:21:31.576Z,2.05
2023-05-24T16:24:00.869Z,2.38
2023-05-24T16:26:32.813Z,2.50
2023-05-24T16:29:00.614Z,2.17
2023-05-24T16:31:28.244Z,3.35
2023-05-24T16:33:56.662Z,2.08
2023-05-24T16:36:27.819Z,1.63
2023-05-24T16:38:55.190Z,1.67
2023-05-24T16:41:22.702Z,1.90
2023-05-24T16:43:50.717Z,1.88
2023-05-24T16:46:19.003Z,2.30
2023-05-24T16:48:46.907Z,2.08
2023-05-24T16:51:14.285Z,2.03
2023-05-24T16:53:41.557Z,1.77
2023-05-24T16:56:09.790Z,2.28
2023-05-24T16:58:37.817Z,1.83
2023-05-24T17:01:05.928Z,2.00
2023-05-24T17:03:34.861Z,1.77
2023-05-24T17:06:04.094Z,2.15
2023-05-24T17:08:39.073Z,2.53
2023-05-24T17:11:07.828Z,1.73
2023-05-24T17:13:35.359Z,2.28
2023-05-24T17:16:04.230Z,1.63
2023-05-24T17:18:31.916Z,2.17
2023-05-24T17:21:01.872Z,2.38
2023-05-24T17:23:31.650Z,1.83
2023-05-24T17:26:00.386Z,2.03
2023-05-24T17:28:28.084Z,2.10
2023-05-24T17:30:57.736Z,2.72
2023-05-24T17:33:26.555Z,2.00
2023-05-24T17:35:56.872Z,2.00
2023-05-24T17:38:25.604Z,2.05
2023-05-24T17:40:57.361Z,1.83
2023-05-24T17:43:29.360Z,1.63
2023-05-24T17:46:04.418Z,1.67
2023-05-24T17:48:33.558Z,1.63
2023-05-24T17:51:02.796Z,1.38
2023-05-24T17:53:34.123Z,1.95
2023-05-24T17:56:02.789Z,1.70
2023-05-24T17:58:33.987Z,1.73
2023-05-24T18:01:01.287Z,2.00
2023-05-24T18:03:28.717Z,1.70
2023-05-24T18:05:56.734Z,1.88
2023-05-24T18:08:25.848Z,1.30
2023-05-24T18:10:53.411Z,1.75
2023-05-24T18:13:20.767Z,1.50
2023-05-24T18:15:48.808Z,1.88
2023-05-24T18:18:16.890Z,1.42
2023-05-24T18:20:44.719Z,1.60
2023-05-24T18:23:12.131Z,1.70
2023-05-24T18:25:39.327Z,1.63
2023-05-24T18:28:06.910Z,1.58
2023-05-24T18:30:34.854Z,1.98
2023-05-24T18:33:07.808Z,1.95
2023-05-24T18:35:36.168Z,2.00
2023-05-24T18:38:04.437Z,1.95
2023-05-24T18:40:31.632Z,2.30
2023-05-24T18:42:58.969Z,2.15
2023-05-24T18:45:26.135Z,1.92
2023-05-24T18:47:54.516Z,1.90
2023-05-24T18:50:23.641Z,2.33
2023-05-24T18:52:54.073Z,1.88
2023-05-24T18:55:23.515Z,2.45
2023-05-24T18:57:50.818Z,2.05
2023-05-24T19:00:22.921Z,2.30
2023-05-24T19:02:50.383Z,2.65
2023-05-24T19:05:17.636Z,2.70
2023-05-24T19:07:44.854Z,2.53
2023-05-24T19:10:12.275Z,2.65
2023-05-24T19:12:39.266Z,2.53
2023-05-24T19:15:07.921Z,1.90
2023-05-24T19:17:35.016Z,2.60
2023-05-24T19:20:02.881Z,1.98
2023-05-24T19:22:29.962Z,2.38
2023-05-24T19:24:57.573Z,2.80
2023-05-24T19:27:25.010Z,2.15
2023-05-24T19:29:52.171Z,2.40
2023-05-24T19:32:20.670Z,2.50
2023-05-24T19:34:47.850Z,2.28
2023-05-24T19:37:16.111Z,2.40
2023-05-24T19:39:43.153Z,9.50
2023-05-24T19:42:12.012Z,2.72
2023-05-24T19:44:39.147Z,2.78
2023-05-24T19:47:06.940Z,3.35
2023-05-24T19:49:34.187Z,2.03
2023-05-24T19:52:01.300Z,1.50
2023-05-24T19:54:28.811Z,2.03
2023-05-24T19:56:58.122Z,1.67
2023-05-24T19:59:25.322Z,1.90
2023-05-24T20:01:52.466Z,2.05
2023-05-24T20:04:19.774Z,2.15
2023-05-24T20:06:46.825Z,1.67
2023-05-24T20:09:18.981Z,2.40
2023-05-24T20:11:46.627Z,2.53
2023-05-24T20:14:13.833Z,2.50
2023-05-24T20:16:41.215Z,4.65
2023-05-24T20:19:08.377Z,3.33
2023-05-24T20:21:36.951Z,3.70
2023-05-24T20:24:04.140Z,4.47
2023-05-24T20:26:33.558Z,4.22
2023-05-24T20:29:00.781Z,4.43
2023-05-24T20:31:28.219Z,4.65
2023-05-24T20:33:55.478Z,3.92
2023-05-24T20:36:22.689Z,3.80
2023-05-24T20:38:50.507Z,4.25
2023-05-24T20:41:18.394Z,4.45
2023-05-24T20:43:45.607Z,3.83
2023-05-24T20:46:14.231Z,4.32
2023-05-24T20:48:42.517Z,4.68
2023-05-24T20:51:10.257Z,5.13
2023-05-24T20:53:38.190Z,4.32
2023-05-24T20:56:05.397Z,4.35
2023-05-24T20:58:32.515Z,3.80
2023-05-24T21:00:59.669Z,3.88
2023-05-24T21:03:27.265Z,4.85
2023-05-24T21:05:54.439Z,3.35
2023-05-24T21:08:21.609Z,3.78
2023-05-24T21:10:48.903Z,3.67
2023-05-24T21:13:16.045Z,4.45
2023-05-24T21:15:45.386Z,4.03
2023-05-24T21:18:12.804Z,3.95
2023-05-24T21:20:39.989Z,3.92
2023-05-24T21:23:07.293Z,3.70
2023-05-24T21:25:34.413Z,4.03
2023-05-24T21:28:02.016Z,3.17
2023-05-24T21:30:30.837Z,3.58
2023-05-24T21:32:58.632Z,3.45
2023-05-24T21:35:26.518Z,2.67
2023-05-24T21:37:53.595Z,3.53
2023-05-24T21:40:20.623Z,3.55
2023-05-24T21:42:47.649Z,3.80
2023-05-24T21:45:14.723Z,4.05
2023-05-24T21:47:42.990Z,3.97
2023-05-24T21:50:10.776Z,3.90
2023-05-24T21:52:37.853Z,4.20
2023-05-24T21:55:05.851Z,3.47
2023-05-24T21:57:33.075Z,3.88
2023-05-24T22:00:00.381Z,3.40
2023-05-24T22:02:27.610Z,3.35
2023-05-24T22:04:55.099Z,3.78
2023-05-24T22:07:22.212Z,3.47
2023-05-24T22:09:49.234Z,3.78
2023-05-24T22:12:16.390Z,3.58
2023-05-24T22:14:43.426Z,4.10
2023-05-24T22:17:11.564Z,4.20
2023-05-24T22:19:40.567Z,3.55
2023-05-24T22:22:09.273Z,3.80
2023-05-24T22:24:36.741Z,3.47
2023-05-24T22:27:04.207Z,3.45
2023-05-24T22:29:31.484Z,4.90
2023-05-24T22:31:58.564Z,4.13
2023-05-24T22:34:28.390Z,3.95
2023-05-24T22:36:55.976Z,3.53
2023-05-24T22:39:23.690Z,3.42
2023-05-24T22:41:52.210Z,3.65
2023-05-24T22:44:19.216Z,3.45
2023-05-24T22:46:50.130Z,3.03
2023-05-24T22:49:19.846Z,3.03
2023-05-24T22:51:48.613Z,3.22
2023-05-24T22:54:15.964Z,3.08
2023-05-24T22:56:43.933Z,3.55
2023-05-24T22:59:11.532Z,2.70
2023-05-24T23:01:38.806Z,3.00
2023-05-24T23:04:19.689Z,3.10
2023-05-24T23:06:49.488Z,2.58
2023-05-24T23:09:17.912Z,2.95
2023-05-24T23:11:46.427Z,2.90
2023-05-24T23:14:14.511Z,2.55
2023-05-24T23:16:46.166Z,2.67
2023-05-24T23:19:19.094Z,3.08
2023-05-24T23:21:46.433Z,2.38
2023-05-24T23:24:16.213Z,1.90
2023-05-24T23:26:43.293Z,2.47
2023-05-24T23:29:10.537Z,2.28
2023-05-24T23:31:37.888Z,2.60
2023-05-24T23:34:05.889Z,2.78
2023-05-24T23:36:33.358Z,2.60
2023-05-24T23:39:00.408Z,2.90
2023-05-24T23:41:27.562Z,2.80
2023-05-24T23:43:54.549Z,3.10
2023-05-24T23:46:21.690Z,3.03
2023-05-24T23:48:48.851Z,3.15
2023-05-24T23:51:16.098Z,2.63
2023-05-24T23:53:43.083Z,3.60
2023-05-24T23:56:10.027Z,3.10
2023-05-24T23:58:37.842Z,3.42
